sensor_id;sensor_type;location;lat;lon;timestamp;P1;durP1;ratioP1;P2;durP2;ratioP2
44446;SDS011;30152;52.066;5.358;2022-10-19T07:09:01;12.95;;;5.10;;
44446;SDS011;30152;52.066;5.358;2022-10-19T07:11:28;7.30;;;4.20;;
44446;SDS011;30152;52.066;5.358;2022-10-19T07:13:54;11.60;;;5.05;;
44446;SDS011;30152;52.066;5.358;2022-10-19T07:16:20;10.85;;;4.95;;
44446;SDS011;30152;52.066;5.358;2022-10-19T07:18:46;14.27;;;5.20;;
44446;SDS011;30152;52.066;5.358;2022-10-19T07:21:13;14.52;;;5.15;;
44446;SDS011;30152;52.066;5.358;2022-10-19T07:23:40;11.00;;;5.38;;
44446;SDS011;30152;52.066;5.358;2022-10-19T07:26:08;9.95;;;4.90;;
44446;SDS011;30152;52.066;5.358;2022-10-19T07:28:40;8.98;;;4.45;;
44446;SDS011;30152;52.066;5.358;2022-10-19T07:31:07;10.20;;;4.72;;
44446;SDS011;30152;52.066;5.358;2022-10-19T07:33:35;6.88;;;4.00;;
44446;SDS011;30152;52.066;5.358;2022-10-19T07:36:02;12.23;;;4.70;;
44446;SDS011;30152;52.066;5.358;2022-10-19T07:38:30;13.05;;;5.85;;
44446;SDS011;30152;52.066;5.358;2022-10-19T07:41:00;13.13;;;5.13;;
44446;SDS011;30152;52.066;5.358;2022-10-19T07:43:37;10.18;;;5.55;;
44446;SDS011;30152;52.066;5.358;2022-10-19T07:46:07;10.15;;;4.97;;
44446;SDS011;30152;52.066;5.358;2022-10-19T07:48:35;9.93;;;4.65;;
44446;SDS011;30152;52.066;5.358;2022-10-19T07:51:03;10.02;;;4.32;;
44446;SDS011;30152;52.066;5.358;2022-10-19T07:53:30;10.30;;;4.70;;
44446;SDS011;30152;52.066;5.358;2022-10-19T07:56:01;9.23;;;4.18;;
44446;SDS011;30152;52.066;5.358;2022-10-19T07:58:28;10.77;;;5.35;;
44446;SDS011;30152;52.066;5.358;2022-10-19T08:00:58;8.45;;;4.40;;
44446;SDS011;30152;52.066;5.358;2022-10-19T08:03:28;9.50;;;3.77;;
44446;SDS011;30152;52.066;5.358;2022-10-19T08:05:58;11.90;;;6.05;;
44446;SDS011;30152;52.066;5.358;2022-10-19T08:08:35;27.88;;;15.52;;
44446;SDS011;30152;52.066;5.358;2022-10-19T08:11:05;16.88;;;7.97;;
44446;SDS011;30152;52.066;5.358;2022-10-19T08:13:35;20.90;;;11.52;;
44446;SDS011;30152;52.066;5.358;2022-10-19T08:16:01;20.90;;;15.27;;
44446;SDS011;30152;52.066;5.358;2022-10-19T08:18:28;27.75;;;19.50;;
44446;SDS011;30152;52.066;5.358;2022-10-19T08:20:54;18.45;;;9.10;;
44446;SDS011;30152;52.066;5.358;2022-10-19T08:23:20;23.10;;;6.72;;
44446;SDS011;30152;52.066;5.358;2022-10-19T08:25:51;13.90;;;5.97;;
44446;SDS011;30152;52.066;5.358;2022-10-19T08:28:17;14.25;;;8.60;;
44446;SDS011;30152;52.066;5.358;2022-10-19T08:30:43;14.82;;;9.32;;
44446;SDS011;30152;52.066;5.358;2022-10-19T08:33:10;17.77;;;11.18;;
44446;SDS011;30152;52.066;5.358;2022-10-19T08:35:46;21.35;;;12.07;;
44446;SDS011;30152;52.066;5.358;2022-10-19T08:38:13;17.67;;;10.55;;
44446;SDS011;30152;52.066;5.358;2022-10-19T08:40:39;12.90;;;7.35;;
44446;SDS011;30152;52.066;5.358;2022-10-19T08:43:10;15.40;;;8.10;;
44446;SDS011;30152;52.066;5.358;2022-10-19T08:48:57;12.98;;;6.85;;
44446;SDS011;30152;52.066;5.358;2022-10-19T08:51:25;12.20;;;7.60;;
44446;SDS011;30152;52.066;5.358;2022-10-19T08:53:53;11.95;;;6.63;;
44446;SDS011;30152;52.066;5.358;2022-10-19T08:56:32;13.50;;;6.38;;
44446;SDS011;30152;52.066;5.358;2022-10-19T09:04:01;13.05;;;6.68;;
44446;SDS011;30152;52.066;5.358;2022-10-19T09:09:43;12.30;;;6.22;;
44446;SDS011;30152;52.066;5.358;2022-10-19T09:12:13;16.33;;;6.22;;
44446;SDS011;30152;52.066;5.358;2022-10-19T09:14:57;14.23;;;6.45;;
44446;SDS011;30152;52.066;5.358;2022-10-19T09:17:26;13.07;;;5.63;;
44446;SDS011;30152;52.066;5.358;2022-10-19T09:19:52;10.05;;;5.18;;
44446;SDS011;30152;52.066;5.358;2022-10-19T09:24:54;14.38;;;5.68;;
44446;SDS011;30152;52.066;5.358;2022-10-19T09:27:29;10.70;;;4.80;;
44446;SDS011;30152;52.066;5.358;2022-10-19T09:30:01;10.90;;;5.07;;
44446;SDS011;30152;52.066;5.358;2022-10-19T09:32:30;13.18;;;5.35;;
44446;SDS011;30152;52.066;5.358;2022-10-19T09:35:02;10.35;;;4.20;;
44446;SDS011;30152;52.066;5.358;2022-10-19T09:37:30;13.20;;;4.32;;
44446;SDS011;30152;52.066;5.358;2022-10-19T09:40:01;15.38;;;4.97;;
44446;SDS011;30152;52.066;5.358;2022-10-19T09:42:31;9.57;;;4.30;;
44446;SDS011;30152;52.066;5.358;2022-10-19T09:44:57;17.40;;;4.50;;
44446;SDS011;30152;52.066;5.358;2022-10-19T09:49:52;17.58;;;7.05;;
44446;SDS011;30152;52.066;5.358;2022-10-19T09:52:47;27.05;;;9.70;;
44446;SDS011;30152;52.066;5.358;2022-10-19T09:58:01;10.55;;;4.45;;
44446;SDS011;30152;52.066;5.358;2022-10-19T10:00:40;9.63;;;2.38;;
44446;SDS011;30152;52.066;5.358;2022-10-19T10:03:27;7.75;;;2.55;;
44446;SDS011;30152;52.066;5.358;2022-10-19T10:05:54;9.75;;;2.40;;
44446;SDS011;30152;52.066;5.358;2022-10-19T10:08:25;10.18;;;3.25;;
44446;SDS011;30152;52.066;5.358;2022-10-19T10:13:42;9.40;;;2.30;;
44446;SDS011;30152;52.066;5.358;2022-10-19T10:16:16;15.82;;;5.10;;
44446;SDS011;30152;52.066;5.358;2022-10-19T10:18:53;9.35;;;3.70;;
44446;SDS011;30152;52.066;5.358;2022-10-19T10:21:49;11.50;;;3.00;;
44446;SDS011;30152;52.066;5.358;2022-10-19T10:24:17;15.30;;;4.35;;
44446;SDS011;30152;52.066;5.358;2022-10-19T10:26:46;11.50;;;1.80;;
44446;SDS011;30152;52.066;5.358;2022-10-19T10:32:02;9.05;;;2.53;;
44446;SDS011;30152;52.066;5.358;2022-10-19T10:34:36;12.00;;;1.80;;
44446;SDS011;30152;52.066;5.358;2022-10-19T10:40:05;10.05;;;3.38;;
44446;SDS011;30152;52.066;5.358;2022-10-19T10:42:40;6.80;;;1.45;;
44446;SDS011;30152;52.066;5.358;2022-10-19T10:45:19;7.45;;;1.27;;
44446;SDS011;30152;52.066;5.358;2022-10-19T10:47:50;8.90;;;1.40;;
44446;SDS011;30152;52.066;5.358;2022-10-19T10:52:54;6.57;;;1.35;;
44446;SDS011;30152;52.066;5.358;2022-10-19T10:55:23;6.93;;;1.33;;
44446;SDS011;30152;52.066;5.358;2022-10-19T10:57:50;7.75;;;1.50;;
44446;SDS011;30152;52.066;5.358;2022-10-19T11:00:26;10.57;;;1.60;;
44446;SDS011;30152;52.066;5.358;2022-10-19T11:05:56;8.60;;;1.25;;
44446;SDS011;30152;52.066;5.358;2022-10-19T11:08:26;6.35;;;1.10;;
44446;SDS011;30152;52.066;5.358;2022-10-19T11:11:16;7.53;;;1.10;;
44446;SDS011;30152;52.066;5.358;2022-10-19T11:13:51;8.45;;;1.23;;
44446;SDS011;30152;52.066;5.358;2022-10-19T11:16:40;6.07;;;1.50;;
44446;SDS011;30152;52.066;5.358;2022-10-19T11:19:18;11.82;;;1.45;;
44446;SDS011;30152;52.066;5.358;2022-10-19T11:25:06;6.55;;;2.03;;
44446;SDS011;30152;52.066;5.358;2022-10-19T11:31:00;5.80;;;1.60;;
44446;SDS011;30152;52.066;5.358;2022-10-19T11:33:39;11.05;;;4.35;;
44446;SDS011;30152;52.066;5.358;2022-10-19T11:36:18;46.60;;;12.93;;
44446;SDS011;30152;52.066;5.358;2022-10-19T11:38:54;8.85;;;1.73;;
44446;SDS011;30152;52.066;5.358;2022-10-19T11:41:38;10.27;;;1.73;;
44446;SDS011;30152;52.066;5.358;2022-10-19T11:44:12;9.37;;;1.33;;
44446;SDS011;30152;52.066;5.358;2022-10-19T11:47:54;8.40;;;1.80;;
44446;SDS011;30152;52.066;5.358;2022-10-19T12:03:28;6.20;;;1.80;;
44446;SDS011;30152;52.066;5.358;2022-10-19T12:06:02;12.32;;;2.30;;
44446;SDS011;30152;52.066;5.358;2022-10-19T12:08:52;10.55;;;2.80;;
44446;SDS011;30152;52.066;5.358;2022-10-19T12:11:30;11.77;;;2.88;;
44446;SDS011;30152;52.066;5.358;2022-10-19T12:14:24;7.15;;;1.90;;
44446;SDS011;30152;52.066;5.358;2022-10-19T12:16:55;10.02;;;3.45;;
44446;SDS011;30152;52.066;5.358;2022-10-19T12:19:28;14.20;;;2.80;;
44446;SDS011;30152;52.066;5.358;2022-10-19T12:21:59;12.00;;;2.53;;
44446;SDS011;30152;52.066;5.358;2022-10-19T12:24:28;10.63;;;2.03;;
44446;SDS011;30152;52.066;5.358;2022-10-19T12:26:56;13.45;;;2.25;;
44446;SDS011;30152;52.066;5.358;2022-10-19T12:29:27;8.32;;;1.65;;
44446;SDS011;30152;52.066;5.358;2022-10-19T12:31:57;9.40;;;1.60;;
44446;SDS011;30152;52.066;5.358;2022-10-19T12:34:26;8.98;;;1.65;;
44446;SDS011;30152;52.066;5.358;2022-10-19T12:37:22;8.35;;;1.67;;
44446;SDS011;30152;52.066;5.358;2022-10-19T12:48:27;8.60;;;1.67;;
44446;SDS011;30152;52.066;5.358;2022-10-19T13:01:08;7.55;;;1.58;;
44446;SDS011;30152;52.066;5.358;2022-10-19T13:03:42;7.97;;;1.92;;
44446;SDS011;30152;52.066;5.358;2022-10-19T13:06:12;8.52;;;2.30;;
44446;SDS011;30152;52.066;5.358;2022-10-19T13:08:46;12.55;;;2.55;;
44446;SDS011;30152;52.066;5.358;2022-10-19T13:11:19;7.10;;;2.17;;
44446;SDS011;30152;52.066;5.358;2022-10-19T13:13:48;9.52;;;2.38;;
44446;SDS011;30152;52.066;5.358;2022-10-19T13:19:00;16.35;;;3.00;;
44446;SDS011;30152;52.066;5.358;2022-10-19T13:26:44;6.97;;;1.58;;
44446;SDS011;30152;52.066;5.358;2022-10-19T13:29:23;7.35;;;1.38;;
44446;SDS011;30152;52.066;5.358;2022-10-19T13:31:49;8.73;;;1.95;;
44446;SDS011;30152;52.066;5.358;2022-10-19T13:34:15;9.95;;;2.10;;
44446;SDS011;30152;52.066;5.358;2022-10-19T13:36:59;10.02;;;2.63;;
44446;SDS011;30152;52.066;5.358;2022-10-19T13:39:27;7.43;;;1.92;;
44446;SDS011;30152;52.066;5.358;2022-10-19T13:41:53;6.78;;;1.60;;
44446;SDS011;30152;52.066;5.358;2022-10-19T13:47:11;4.75;;;1.73;;
44446;SDS011;30152;52.066;5.358;2022-10-19T13:53:15;9.63;;;1.63;;
44446;SDS011;30152;52.066;5.358;2022-10-19T14:06:31;9.13;;;1.52;;
44446;SDS011;30152;52.066;5.358;2022-10-19T14:12:01;8.65;;;1.45;;
44446;SDS011;30152;52.066;5.358;2022-10-19T14:14:42;8.48;;;1.33;;
44446;SDS011;30152;52.066;5.358;2022-10-19T14:17:12;6.45;;;1.58;;
44446;SDS011;30152;52.066;5.358;2022-10-19T14:19:41;9.27;;;1.50;;
44446;SDS011;30152;52.066;5.358;2022-10-19T14:22:23;5.43;;;1.10;;
44446;SDS011;30152;52.066;5.358;2022-10-19T14:27:55;7.68;;;2.10;;
44446;SDS011;30152;52.066;5.358;2022-10-19T14:30:33;6.50;;;1.45;;
44446;SDS011;30152;52.066;5.358;2022-10-19T14:33:00;6.28;;;1.25;;
44446;SDS011;30152;52.066;5.358;2022-10-19T14:35:33;5.78;;;0.93;;
44446;SDS011;30152;52.066;5.358;2022-10-19T14:38:02;4.22;;;0.95;;
44446;SDS011;30152;52.066;5.358;2022-10-19T14:40:33;5.45;;;1.20;;
44446;SDS011;30152;52.066;5.358;2022-10-19T14:43:13;7.05;;;1.35;;
44446;SDS011;30152;52.066;5.358;2022-10-19T14:48:32;10.05;;;1.30;;
44446;SDS011;30152;52.066;5.358;2022-10-19T14:51:03;4.18;;;1.17;;
44446;SDS011;30152;52.066;5.358;2022-10-19T14:56:08;6.80;;;1.77;;
44446;SDS011;30152;52.066;5.358;2022-10-19T14:58:39;8.48;;;2.17;;
44446;SDS011;30152;52.066;5.358;2022-10-19T15:01:15;7.20;;;1.73;;
44446;SDS011;30152;52.066;5.358;2022-10-19T15:03:41;8.00;;;2.00;;
44446;SDS011;30152;52.066;5.358;2022-10-19T15:06:15;7.13;;;2.00;;
44446;SDS011;30152;52.066;5.358;2022-10-19T15:08:46;11.38;;;1.70;;
44446;SDS011;30152;52.066;5.358;2022-10-19T15:11:20;8.98;;;1.40;;
44446;SDS011;30152;52.066;5.358;2022-10-19T15:14:21;6.70;;;1.30;;
44446;SDS011;30152;52.066;5.358;2022-10-19T15:16:54;7.57;;;1.58;;
44446;SDS011;30152;52.066;5.358;2022-10-19T15:22:13;7.80;;;1.98;;
44446;SDS011;30152;52.066;5.358;2022-10-19T15:24:36;11.13;;;1.38;;
44446;SDS011;30152;52.066;5.358;2022-10-19T15:27:08;6.72;;;1.40;;
44446;SDS011;30152;52.066;5.358;2022-10-19T15:29:54;9.88;;;1.52;;
44446;SDS011;30152;52.066;5.358;2022-10-19T15:32:22;6.15;;;1.60;;
44446;SDS011;30152;52.066;5.358;2022-10-19T15:34:59;8.13;;;1.10;;
44446;SDS011;30152;52.066;5.358;2022-10-19T15:37:33;7.85;;;1.30;;
44446;SDS011;30152;52.066;5.358;2022-10-19T15:39:59;9.55;;;2.10;;
44446;SDS011;30152;52.066;5.358;2022-10-19T15:42:40;6.80;;;1.38;;
44446;SDS011;30152;52.066;5.358;2022-10-19T15:50:54;9.02;;;2.00;;
44446;SDS011;30152;52.066;5.358;2022-10-19T15:53:20;7.82;;;1.48;;
44446;SDS011;30152;52.066;5.358;2022-10-19T15:55:46;11.18;;;1.67;;
44446;SDS011;30152;52.066;5.358;2022-10-19T15:58:12;13.32;;;2.70;;
44446;SDS011;30152;52.066;5.358;2022-10-19T16:00:39;9.55;;;2.53;;
44446;SDS011;30152;52.066;5.358;2022-10-19T16:03:05;10.60;;;3.30;;
44446;SDS011;30152;52.066;5.358;2022-10-19T16:05:31;11.32;;;4.05;;
44446;SDS011;30152;52.066;5.358;2022-10-19T16:07:58;18.85;;;6.25;;
44446;SDS011;30152;52.066;5.358;2022-10-19T16:10:24;8.25;;;3.40;;
44446;SDS011;30152;52.066;5.358;2022-10-19T16:12:51;9.55;;;2.85;;
44446;SDS011;30152;52.066;5.358;2022-10-19T16:15:18;11.82;;;3.17;;
44446;SDS011;30152;52.066;5.358;2022-10-19T16:17:49;7.82;;;2.17;;
44446;SDS011;30152;52.066;5.358;2022-10-19T16:20:17;8.95;;;2.50;;
44446;SDS011;30152;52.066;5.358;2022-10-19T16:22:43;9.82;;;2.40;;
44446;SDS011;30152;52.066;5.358;2022-10-19T16:25:10;8.43;;;2.22;;
44446;SDS011;30152;52.066;5.358;2022-10-19T16:27:36;7.57;;;2.30;;
44446;SDS011;30152;52.066;5.358;2022-10-19T16:30:02;10.93;;;2.50;;
44446;SDS011;30152;52.066;5.358;2022-10-19T16:32:28;12.52;;;2.65;;
44446;SDS011;30152;52.066;5.358;2022-10-19T16:34:54;13.70;;;2.47;;
44446;SDS011;30152;52.066;5.358;2022-10-19T16:37:20;8.68;;;2.50;;
44446;SDS011;30152;52.066;5.358;2022-10-19T16:39:46;7.53;;;2.72;;
44446;SDS011;30152;52.066;5.358;2022-10-19T16:42:11;9.85;;;2.90;;
44446;SDS011;30152;52.066;5.358;2022-10-19T16:44:37;12.50;;;2.72;;
44446;SDS011;30152;52.066;5.358;2022-10-19T16:47:03;19.65;;;6.85;;
44446;SDS011;30152;52.066;5.358;2022-10-19T16:49:29;11.85;;;4.30;;
44446;SDS011;30152;52.066;5.358;2022-10-19T16:51:56;21.63;;;9.48;;
44446;SDS011;30152;52.066;5.358;2022-10-19T16:54:22;9.52;;;4.32;;
44446;SDS011;30152;52.066;5.358;2022-10-19T16:56:48;12.38;;;4.75;;
44446;SDS011;30152;52.066;5.358;2022-10-19T16:59:15;11.95;;;3.92;;
44446;SDS011;30152;52.066;5.358;2022-10-19T17:01:42;14.85;;;6.20;;
44446;SDS011;30152;52.066;5.358;2022-10-19T17:04:10;18.35;;;7.00;;
44446;SDS011;30152;52.066;5.358;2022-10-19T17:06:37;17.35;;;6.55;;
44446;SDS011;30152;52.066;5.358;2022-10-19T17:09:03;23.27;;;13.48;;
44446;SDS011;30152;52.066;5.358;2022-10-19T17:11:33;38.47;;;24.17;;
44446;SDS011;30152;52.066;5.358;2022-10-19T17:14:04;70.88;;;41.85;;
44446;SDS011;30152;52.066;5.358;2022-10-19T17:16:32;28.40;;;17.17;;
44446;SDS011;30152;52.066;5.358;2022-10-19T17:19:00;18.48;;;8.32;;
44446;SDS011;30152;52.066;5.358;2022-10-19T17:21:27;21.20;;;11.00;;
44446;SDS011;30152;52.066;5.358;2022-10-19T17:23:55;15.77;;;7.63;;
44446;SDS011;30152;52.066;5.358;2022-10-19T17:26:25;10.52;;;5.57;;
44446;SDS011;30152;52.066;5.358;2022-10-19T17:28:52;13.20;;;4.80;;
44446;SDS011;30152;52.066;5.358;2022-10-19T17:31:18;14.70;;;4.95;;
44446;SDS011;30152;52.066;5.358;2022-10-19T17:33:44;13.98;;;4.72;;
44446;SDS011;30152;52.066;5.358;2022-10-19T17:36:11;10.60;;;4.53;;
44446;SDS011;30152;52.066;5.358;2022-10-19T17:38:39;11.10;;;5.15;;
44446;SDS011;30152;52.066;5.358;2022-10-19T17:41:06;13.02;;;6.50;;
44446;SDS011;30152;52.066;5.358;2022-10-19T17:43:34;16.15;;;5.80;;
44446;SDS011;30152;52.066;5.358;2022-10-19T17:46:02;15.80;;;6.07;;
44446;SDS011;30152;52.066;5.358;2022-10-19T17:48:30;11.23;;;4.80;;
44446;SDS011;30152;52.066;5.358;2022-10-19T17:50:57;13.75;;;5.20;;
44446;SDS011;30152;52.066;5.358;2022-10-19T17:53:29;10.00;;;4.55;;
44446;SDS011;30152;52.066;5.358;2022-10-19T17:55:57;19.80;;;5.40;;
44446;SDS011;30152;52.066;5.358;2022-10-19T17:58:24;14.88;;;5.50;;
44446;SDS011;30152;52.066;5.358;2022-10-19T18:00:53;13.25;;;5.53;;
44446;SDS011;30152;52.066;5.358;2022-10-19T18:03:20;10.98;;;5.07;;
44446;SDS011;30152;52.066;5.358;2022-10-19T18:06:00;9.25;;;4.97;;
44446;SDS011;30152;52.066;5.358;2022-10-19T18:08:28;10.55;;;5.72;;
44446;SDS011;30152;52.066;5.358;2022-10-19T18:11:03;14.70;;;6.22;;
44446;SDS011;30152;52.066;5.358;2022-10-19T18:13:30;13.00;;;5.50;;
44446;SDS011;30152;52.066;5.358;2022-10-19T18:16:00;17.70;;;6.78;;
44446;SDS011;30152;52.066;5.358;2022-10-19T18:18:27;12.77;;;5.40;;
44446;SDS011;30152;52.066;5.358;2022-10-19T18:20:53;14.90;;;5.97;;
44446;SDS011;30152;52.066;5.358;2022-10-19T18:23:19;11.77;;;5.35;;
44446;SDS011;30152;52.066;5.358;2022-10-19T18:25:45;16.20;;;5.70;;
44446;SDS011;30152;52.066;5.358;2022-10-19T18:28:13;10.45;;;6.45;;
44446;SDS011;30152;52.066;5.358;2022-10-19T18:30:39;12.07;;;5.82;;
44446;SDS011;30152;52.066;5.358;2022-10-19T18:33:06;13.27;;;5.90;;
44446;SDS011;30152;52.066;5.358;2022-10-19T18:35:33;14.20;;;5.50;;
44446;SDS011;30152;52.066;5.358;2022-10-19T18:38:00;16.58;;;5.45;;
44446;SDS011;30152;52.066;5.358;2022-10-19T18:40:25;16.10;;;5.65;;
44446;SDS011;30152;52.066;5.358;2022-10-19T18:42:51;20.38;;;5.82;;
44446;SDS011;30152;52.066;5.358;2022-10-19T18:45:17;13.63;;;4.72;;
44446;SDS011;30152;52.066;5.358;2022-10-19T18:47:43;12.93;;;4.72;;
44446;SDS011;30152;52.066;5.358;2022-10-19T18:50:09;18.15;;;6.75;;
44446;SDS011;30152;52.066;5.358;2022-10-19T18:52:37;14.35;;;5.65;;
44446;SDS011;30152;52.066;5.358;2022-10-19T18:55:04;24.08;;;10.75;;
44446;SDS011;30152;52.066;5.358;2022-10-19T18:57:30;21.60;;;9.40;;
44446;SDS011;30152;52.066;5.358;2022-10-19T18:59:56;13.45;;;6.60;;
44446;SDS011;30152;52.066;5.358;2022-10-19T19:02:22;15.85;;;5.95;;
44446;SDS011;30152;52.066;5.358;2022-10-19T19:04:48;10.50;;;5.03;;
44446;SDS011;30152;52.066;5.358;2022-10-19T19:07:14;14.30;;;6.50;;
44446;SDS011;30152;52.066;5.358;2022-10-19T19:09:40;11.60;;;4.72;;
44446;SDS011;30152;52.066;5.358;2022-10-19T19:12:08;14.40;;;5.50;;
44446;SDS011;30152;52.066;5.358;2022-10-19T19:14:34;19.70;;;5.65;;
44446;SDS011;30152;52.066;5.358;2022-10-19T19:17:01;10.95;;;4.78;;
44446;SDS011;30152;52.066;5.358;2022-10-19T19:19:27;15.70;;;6.05;;
44446;SDS011;30152;52.066;5.358;2022-10-19T19:21:53;15.82;;;5.85;;
44446;SDS011;30152;52.066;5.358;2022-10-19T19:24:20;18.02;;;5.82;;
44446;SDS011;30152;52.066;5.358;2022-10-19T19:26:50;17.67;;;6.45;;
44446;SDS011;30152;52.066;5.358;2022-10-19T19:29:18;11.15;;;5.78;;
44446;SDS011;30152;52.066;5.358;2022-10-19T19:31:45;12.82;;;6.32;;
44446;SDS011;30152;52.066;5.358;2022-10-19T19:34:11;15.57;;;5.90;;
44446;SDS011;30152;52.066;5.358;2022-10-19T19:36:38;16.70;;;6.35;;
44446;SDS011;30152;52.066;5.358;2022-10-19T19:39:10;12.88;;;6.60;;
44446;SDS011;30152;52.066;5.358;2022-10-19T19:41:36;24.52;;;10.02;;
44446;SDS011;30152;52.066;5.358;2022-10-19T19:44:02;14.20;;;6.00;;
44446;SDS011;30152;52.066;5.358;2022-10-19T19:46:28;16.60;;;7.45;;
44446;SDS011;30152;52.066;5.358;2022-10-19T19:48:58;23.05;;;8.02;;
44446;SDS011;30152;52.066;5.358;2022-10-19T19:51:25;14.07;;;6.00;;
44446;SDS011;30152;52.066;5.358;2022-10-19T19:53:52;15.07;;;6.03;;
44446;SDS011;30152;52.066;5.358;2022-10-19T19:56:17;14.38;;;6.53;;
44446;SDS011;30152;52.066;5.358;2022-10-19T19:58:44;14.30;;;7.22;;
44446;SDS011;30152;52.066;5.358;2022-10-19T20:01:12;13.98;;;7.05;;
44446;SDS011;30152;52.066;5.358;2022-10-19T20:03:39;13.52;;;6.03;;
44446;SDS011;30152;52.066;5.358;2022-10-19T20:06:05;13.25;;;7.07;;
44446;SDS011;30152;52.066;5.358;2022-10-19T20:08:31;17.80;;;9.50;;
44446;SDS011;30152;52.066;5.358;2022-10-19T20:11:01;17.75;;;10.80;;
44446;SDS011;30152;52.066;5.358;2022-10-19T20:13:28;21.95;;;12.40;;
44446;SDS011;30152;52.066;5.358;2022-10-19T20:15:54;20.95;;;13.70;;
44446;SDS011;30152;52.066;5.358;2022-10-19T20:18:20;16.55;;;7.88;;
44446;SDS011;30152;52.066;5.358;2022-10-19T20:20:46;16.55;;;9.13;;
44446;SDS011;30152;52.066;5.358;2022-10-19T20:23:12;22.35;;;12.52;;
